Time;durP1;ratioP1;P1;durP2;ratioP2;P2;SDS_P1;SDS_P2;PMS_P1;PMS_P2;Temp;Humidity;BMP_temperature;BMP_pressure;BME280_temperature;BME280_humidity;BME280_pressure;Samples;Min_cycle;Max_cycle;Signal;HPM_P1;HPM_P2
2024/01/03 00:01:21;;;;;;;7.10;1.40;;;;;;;;;;5048219;28;20051;-82
2024/01/03 00:03:47;;;;;;;8.43;1.73;;;;;;;;;;5053260;28;20487;-82
2024/01/03 00:06:15;;;;;;;8.90;1.67;;;;;;;;;;5050674;28;20056;-82
2024/01/03 00:08:41;;;;;;;9.55;1.63;;;;;;;;;;5022030;28;20053;-82
2024/01/03 00:11:07;;;;;;;8.63;1.35;;;;;;;;;;5039222;28;20057;-82
2024/01/03 00:13:36;;;;;;;8.15;1.60;;;;;;;;;;5052539;28;20037;-82
2024/01/03 00:16:06;;;;;;;8.25;1.45;;;;;;;;;;5045439;28;20040;-82
2024/01/03 00:18:42;;;;;;;8.43;1.20;;;;;;;;;;5031683;28;20057;-82
2024/01/03 00:21:10;;;;;;;6.53;1.45;;;;;;;;;;5026647;28;20209;-83
2024/01/03 00:23:39;;;;;;;8.35;1.50;;;;;;;;;;5045694;28;20431;-82
2024/01/03 00:26:09;;;;;;;8.60;1.60;;;;;;;;;;5056343;28;20091;-82
2024/01/03 00:28:35;;;;;;;7.90;1.70;;;;;;;;;;5050261;28;20049;-82
2024/01/03 00:31:02;;;;;;;7.78;1.73;;;;;;;;;;5052645;28;20048;-82
2024/01/03 00:33:28;;;;;;;7.28;1.50;;;;;;;;;;5045462;28;20087;-82
2024/01/03 00:35:54;;;;;;;11.07;1.98;;;;;;;;;;5044702;28;20045;-82
2024/01/03 00:38:21;;;;;;;8.30;1.75;;;;;;;;;;5027632;28;20041;-82
2024/01/03 00:40:57;;;;;;;8.20;1.75;;;;;;;;;;5027622;28;20049;-82
2024/01/03 00:43:24;;;;;;;9.25;1.70;;;;;;;;;;5045226;28;20053;-83
2024/01/03 00:45:50;;;;;;;8.93;1.88;;;;;;;;;;5044312;28;20037;-82
2024/01/03 00:48:16;;;;;;;12.30;1.67;;;;;;;;;;5044307;28;20046;-82
2024/01/03 00:50:43;;;;;;;14.43;1.92;;;;;;;;;;5044694;28;20041;-81
2024/01/03 00:53:09;;;;;;;9.13;1.75;;;;;;;;;;5027775;28;20534;-82
2024/01/03 00:55:35;;;;;;;8.98;1.83;;;;;;;;;;5027120;28;20045;-82
2024/01/03 00:58:01;;;;;;;7.07;1.30;;;;;;;;;;5058166;28;20049;-82
2024/01/03 01:00:27;;;;;;;9.25;1.80;;;;;;;;;;5044891;28;20444;-81
2024/01/03 01:02:53;;;;;;;7.53;1.25;;;;;;;;;;5065038;28;20063;-82
2024/01/03 01:05:20;;;;;;;6.60;1.42;;;;;;;;;;5048295;28;20049;-81
2024/01/03 01:07:46;;;;;;;9.27;1.60;;;;;;;;;;5046032;28;20049;-81
2024/01/03 01:10:12;;;;;;;9.40;1.90;;;;;;;;;;5059809;28;20465;-82
2024/01/03 01:12:38;;;;;;;9.82;1.50;;;;;;;;;;5053848;28;20047;-82
2024/01/03 01:15:04;;;;;;;8.93;1.77;;;;;;;;;;5063447;28;20060;-81
2024/01/03 01:17:30;;;;;;;10.68;1.90;;;;;;;;;;5043361;28;20041;-81
2024/01/03 01:19:56;;;;;;;11.40;1.70;;;;;;;;;;5043940;28;20049;-81
2024/01/03 01:22:25;;;;;;;7.50;1.58;;;;;;;;;;5047065;28;20433;-81
2024/01/03 01:24:51;;;;;;;10.90;1.60;;;;;;;;;;5063620;28;20052;-81
2024/01/03 01:27:17;;;;;;;10.60;1.70;;;;;;;;;;5059282;28;20050;-81
2024/01/03 01:29:43;;;;;;;12.77;1.98;;;;;;;;;;5058447;28;20037;-81
2024/01/03 01:32:09;;;;;;;8.05;1.50;;;;;;;;;;5048042;28;20415;-81
2024/01/03 01:34:35;;;;;;;9.65;1.80;;;;;;;;;;5053707;28;20041;-81
2024/01/03 01:37:01;;;;;;;8.30;1.40;;;;;;;;;;5057720;28;20048;-82
2024/01/03 01:39:28;;;;;;;8.65;1.58;;;;;;;;;;5043784;28;20049;-80
2024/01/03 01:41:54;;;;;;;9.45;1.60;;;;;;;;;;5021895;28;20114;-81
2024/01/03 01:44:20;;;;;;;11.30;1.60;;;;;;;;;;5035317;28;20044;-81
2024/01/03 01:46:46;;;;;;;7.95;1.40;;;;;;;;;;5042222;28;20045;-81
2024/01/03 01:49:14;;;;;;;13.93;1.85;;;;;;;;;;5052740;28;20090;-81
2024/01/03 01:51:40;;;;;;;8.95;1.63;;;;;;;;;;5027894;28;20053;-81
2024/01/03 01:54:07;;;;;;;7.45;1.50;;;;;;;;;;5045584;28;20042;-81
2024/01/03 01:56:33;;;;;;;10.63;1.90;;;;;;;;;;5026795;28;20041;-81
2024/01/03 01:58:59;;;;;;;9.82;1.83;;;;;;;;;;5051377;28;20049;-81
2024/01/03 02:01:28;;;;;;;10.52;2.35;;;;;;;;;;5052564;28;20046;-80
2024/01/03 02:03:54;;;;;;;9.35;1.50;;;;;;;;;;5010655;28;20037;-81
2024/01/03 02:06:20;;;;;;;9.82;2.03;;;;;;;;;;5057313;28;20045;-81
2024/01/03 02:08:46;;;;;;;11.90;1.83;;;;;;;;;;5042510;28;20049;-81
2024/01/03 02:11:13;;;;;;;10.90;1.85;;;;;;;;;;5043048;28;20050;-82
2024/01/03 02:13:39;;;;;;;10.40;1.73;;;;;;;;;;5027356;28;20044;-82
2024/01/03 02:16:05;;;;;;;12.35;1.95;;;;;;;;;;5058218;28;20044;-81
2024/01/03 02:18:31;;;;;;;9.65;1.88;;;;;;;;;;5052942;28;20045;-83
2024/01/03 02:20:57;;;;;;;8.43;1.50;;;;;;;;;;5055597;28;20042;-82
2024/01/03 02:23:24;;;;;;;14.40;2.72;;;;;;;;;;5064490;28;20045;-83
2024/01/03 02:25:50;;;;;;;8.48;1.75;;;;;;;;;;5065001;28;20053;-82
2024/01/03 02:28:16;;;;;;;8.55;1.42;;;;;;;;;;5055112;28;20053;-82
2024/01/03 02:30:44;;;;;;;6.25;1.10;;;;;;;;;;5052872;28;20130;-82
2024/01/03 02:33:11;;;;;;;8.85;2.10;;;;;;;;;;5056820;28;20099;-82
2024/01/03 02:35:38;;;;;;;9.18;1.50;;;;;;;;;;5051974;28;20075;-82
2024/01/03 02:38:04;;;;;;;7.28;1.42;;;;;;;;;;5061226;28;20099;-82
2024/01/03 02:40:30;;;;;;;8.05;1.38;;;;;;;;;;5058619;28;20048;-82
2024/01/03 02:42:56;;;;;;;7.38;1.20;;;;;;;;;;5051184;28;20045;-82
2024/01/03 02:45:22;;;;;;;8.95;1.58;;;;;;;;;;5062152;28;20102;-82
2024/01/03 02:47:48;;;;;;;7.00;1.65;;;;;;;;;;5052723;28;20484;-82
2024/01/03 02:50:14;;;;;;;9.18;1.70;;;;;;;;;;5048069;28;20037;-82
2024/01/03 02:52:40;;;;;;;9.63;1.20;;;;;;;;;;5049302;28;20551;-82
2024/01/03 02:55:10;;;;;;;7.50;1.20;;;;;;;;;;5042506;28;20057;-82
2024/01/03 02:57:36;;;;;;;8.38;1.40;;;;;;;;;;5045703;28;20041;-82
2024/01/03 03:00:02;;;;;;;9.07;1.42;;;;;;;;;;5022879;28;20049;-82
2024/01/03 03:02:28;;;;;;;7.65;1.30;;;;;;;;;;5050997;28;20048;-83
2024/01/03 03:04:54;;;;;;;3.97;0.82;;;;;;;;;;5059525;28;20049;-82
2024/01/03 03:07:21;;;;;;;10.35;1.17;;;;;;;;;;5062837;28;20048;-82
2024/01/03 03:09:47;;;;;;;8.95;1.05;;;;;;;;;;5057938;28;20049;-81
2024/01/03 03:12:13;;;;;;;8.38;1.33;;;;;;;;;;5055432;28;20044;-82
2024/01/03 03:14:39;;;;;;;7.57;1.10;;;;;;;;;;5045991;28;20045;-82
2024/01/03 03:17:05;;;;;;;5.07;0.75;;;;;;;;;;5042539;28;20099;-83
2024/01/03 03:19:31;;;;;;;3.70;0.60;;;;;;;;;;5042167;28;20037;-82
2024/01/03 03:21:57;;;;;;;2.85;0.60;;;;;;;;;;5056752;28;20441;-82
2024/01/03 03:24:23;;;;;;;3.83;0.60;;;;;;;;;;5050220;28;20072;-82
2024/01/03 03:26:50;;;;;;;2.35;0.57;;;;;;;;;;5061491;28;20071;-82
2024/01/03 03:29:16;;;;;;;3.20;0.60;;;;;;;;;;5042457;28;20435;-82
2024/01/03 03:31:42;;;;;;;2.53;0.60;;;;;;;;;;5040790;28;20046;-82
2024/01/03 03:34:08;;;;;;;2.85;0.70;;;;;;;;;;5056518;28;20048;-82
2024/01/03 03:36:34;;;;;;;3.80;0.70;;;;;;;;;;5043916;28;20048;-82
2024/01/03 03:39:00;;;;;;;2.67;0.50;;;;;;;;;;5060455;28;20501;-81
2024/01/03 03:41:26;;;;;;;3.15;1.05;;;;;;;;;;5060864;28;20056;-83
2024/01/03 03:43:53;;;;;;;4.47;0.65;;;;;;;;;;5054174;28;20087;-82
2024/01/03 03:46:19;;;;;;;5.13;0.80;;;;;;;;;;5060679;28;20048;-82
2024/01/03 03:48:45;;;;;;;4.15;1.00;;;;;;;;;;5060916;28;20037;-82
2024/01/03 03:51:11;;;;;;;3.75;0.77;;;;;;;;;;5060623;28;20375;-82
2024/01/03 03:53:37;;;;;;;5.70;0.98;;;;;;;;;;5053471;28;20044;-82
2024/01/03 03:56:03;;;;;;;3.58;0.68;;;;;;;;;;5049434;28;20049;-82
2024/01/03 03:58:29;;;;;;;3.80;0.70;;;;;;;;;;5058545;28;20036;-82
2024/01/03 04:00:56;;;;;;;3.53;0.68;;;;;;;;;;5059316;28;20049;-82
2024/01/03 04:03:22;;;;;;;6.43;1.00;;;;;;;;;;5048293;28;20046;-82
2024/01/03 04:05:48;;;;;;;4.07;0.80;;;;;;;;;;5046550;28;20041;-82
2024/01/03 04:08:14;;;;;;;5.82;0.90;;;;;;;;;;5058984;28;20487;-83
2024/01/03 04:10:40;;;;;;;7.20;0.80;;;;;;;;;;5060234;28;20068;-82
2024/01/03 04:13:06;;;;;;;11.25;1.63;;;;;;;;;;5008488;28;20094;-82
2024/01/03 04:15:33;;;;;;;10.73;1.55;;;;;;;;;;5053457;28;20436;-83
2024/01/03 04:17:59;;;;;;;13.35;2.10;;;;;;;;;;5049981;28;20128;-82
2024/01/03 04:20:25;;;;;;;18.10;2.65;;;;;;;;;;5052885;28;20041;-82
2024/01/03 04:22:51;;;;;;;20.67;2.70;;;;;;;;;;5042043;28;20495;-82
2024/01/03 04:25:17;;;;;;;24.67;3.65;;;;;;;;;;5050876;28;20398;-82
2024/01/03 04:27:43;;;;;;;25.65;3.50;;;;;;;;;;5052761;28;20041;-81
2024/01/03 04:30:09;;;;;;;17.05;2.53;;;;;;;;;;5030142;28;20733;-82
2024/01/03 04:32:36;;;;;;;25.23;3.75;;;;;;;;;;5042680;28;20042;-82
2024/01/03 04:35:02;;;;;;;23.23;3.20;;;;;;;;;;5039656;28;20048;-82
2024/01/03 04:37:30;;;;;;;23.20;3.20;;;;;;;;;;5044012;28;20044;-82
2024/01/03 04:39:56;;;;;;;22.98;3.53;;;;;;;;;;5025883;28;20045;-81
2024/01/03 04:42:22;;;;;;;20.73;3.50;;;;;;;;;;5054159;28;20049;-82
2024/01/03 04:44:48;;;;;;;16.85;2.55;;;;;;;;;;5044175;28;20088;-81
2024/01/03 04:47:14;;;;;;;22.80;2.92;;;;;;;;;;5056106;28;20076;-81
2024/01/03 04:49:40;;;;;;;21.00;3.17;;;;;;;;;;5055544;28;20061;-82
2024/01/03 04:52:06;;;;;;;19.50;2.90;;;;;;;;;;5039506;28;20041;-81
2024/01/03 04:54:32;;;;;;;21.67;3.90;;;;;;;;;;5039860;28;20041;-82
2024/01/03 04:56:59;;;;;;;26.52;3.72;;;;;;;;;;5041195;28;20049;-81
2024/01/03 04:59:25;;;;;;;23.25;3.72;;;;;;;;;;5027527;28;20053;-81
2024/01/03 05:01:51;;;;;;;19.45;3.55;;;;;;;;;;5034346;28;20140;-82
2024/01/03 05:04:17;;;;;;;20.60;3.25;;;;;;;;;;5039380;28;20569;-81
2024/01/03 05:06:43;;;;;;;26.38;4.03;;;;;;;;;;5060679;28;20048;-81
2024/01/03 05:09:09;;;;;;;25.45;4.32;;;;;;;;;;5034812;28;20456;-82
2024/01/03 05:11:35;;;;;;;23.38;3.58;;;;;;;;;;5042394;28;20052;-81
2024/01/03 05:14:01;;;;;;;27.20;3.70;;;;;;;;;;5024809;28;20562;-82
2024/01/03 05:16:28;;;;;;;28.33;4.35;;;;;;;;;;5042170;28;20105;-82
2024/01/03 05:18:54;;;;;;;17.92;2.72;;;;;;;;;;5055341;28;20077;-82
2024/01/03 05:21:20;;;;;;;20.67;3.47;;;;;;;;;;5049754;28;20045;-81
2024/01/03 05:23:46;;;;;;;20.75;3.47;;;;;;;;;;5047707;28;20053;-81
2024/01/03 05:26:14;;;;;;;19.15;2.97;;;;;;;;;;5050592;28;20041;-82
2024/01/03 05:28:40;;;;;;;24.05;3.40;;;;;;;;;;5045821;28;20084;-82
2024/01/03 05:31:06;;;;;;;23.63;3.58;;;;;;;;;;5045364;28;20510;-81
2024/01/03 05:33:32;;;;;;;20.77;3.13;;;;;;;;;;5053619;28;20419;-80
2024/01/03 05:35:58;;;;;;;23.23;3.95;;;;;;;;;;5058927;28;20095;-81
2024/01/03 05:38:24;;;;;;;24.27;3.20;;;;;;;;;;5062297;28;20113;-81
2024/01/03 05:40:50;;;;;;;18.48;2.97;;;;;;;;;;5061743;28;20049;-82
2024/01/03 05:43:17;;;;;;;19.30;3.42;;;;;;;;;;5061655;28;20041;-82
2024/01/03 05:45:43;;;;;;;18.33;3.80;;;;;;;;;;5057810;28;20055;-81
2024/01/03 05:48:09;;;;;;;19.30;2.78;;;;;;;;;;5057167;28;20042;-81
2024/01/03 05:50:35;;;;;;;17.70;2.85;;;;;;;;;;5034847;28;20042;-81
2024/01/03 05:53:02;;;;;;;20.17;3.17;;;;;;;;;;5041969;28;20100;-80
2024/01/03 05:55:28;;;;;;;18.00;3.03;;;;;;;;;;5055054;28;20052;-81
2024/01/03 05:57:54;;;;;;;23.10;3.28;;;;;;;;;;5055560;28;20128;-81
2024/01/03 06:00:21;;;;;;;21.23;3.08;;;;;;;;;;5052594;28;20045;-81
2024/01/03 06:02:47;;;;;;;20.92;3.42;;;;;;;;;;5023121;28;20037;-81
2024/01/03 06:05:16;;;;;;;21.15;3.30;;;;;;;;;;5041311;28;20045;-81
2024/01/03 06:07:44;;;;;;;24.65;3.80;;;;;;;;;;5041012;28;20041;-81
2024/01/03 06:10:11;;;;;;;24.90;2.88;;;;;;;;;;5040891;28;20063;-81
2024/01/03 06:12:38;;;;;;;24.60;3.63;;;;;;;;;;5049808;28;20048;-81
2024/01/03 06:15:05;;;;;;;20.00;3.38;;;;;;;;;;5059364;28;20041;-81
2024/01/03 06:17:31;;;;;;;23.50;3.55;;;;;;;;;;5047177;28;20083;-82
2024/01/03 06:19:57;;;;;;;23.73;3.55;;;;;;;;;;5052391;28;20052;-82
2024/01/03 06:22:23;;;;;;;24.67;3.97;;;;;;;;;;5051354;28;20103;-83
2024/01/03 06:24:49;;;;;;;18.85;2.63;;;;;;;;;;5060828;28;20564;-82
2024/01/03 06:27:15;;;;;;;21.63;3.58;;;;;;;;;;5050428;28;20041;-81
2024/01/03 06:29:42;;;;;;;18.52;2.78;;;;;;;;;;5052011;28;20049;-82
2024/01/03 06:32:08;;;;;;;15.25;2.30;;;;;;;;;;5040605;28;20045;-81
2024/01/03 06:34:35;;;;;;;14.07;2.45;;;;;;;;;;5044687;28;20041;-81
2024/01/03 06:37:01;;;;;;;12.32;2.20;;;;;;;;;;5045954;28;20056;-84
2024/01/03 06:39:27;;;;;;;14.73;2.60;;;;;;;;;;5063630;28;20063;-82
2024/01/03 06:41:53;;;;;;;15.57;2.40;;;;;;;;;;5044549;28;20563;-81
2024/01/03 06:44:19;;;;;;;13.95;2.28;;;;;;;;;;5045295;28;20410;-81
2024/01/03 06:46:45;;;;;;;13.45;2.90;;;;;;;;;;5042859;28;20049;-81
2024/01/03 06:49:11;;;;;;;15.32;2.80;;;;;;;;;;5040738;28;20041;-81
2024/01/03 06:51:38;;;;;;;17.85;3.00;;;;;;;;;;5038927;28;20056;-81
2024/01/03 06:54:04;;;;;;;20.13;3.70;;;;;;;;;;5038879;28;20041;-80
2024/01/03 06:56:30;;;;;;;17.63;2.53;;;;;;;;;;5039645;28;20037;-81
2024/01/03 06:58:59;;;;;;;21.77;3.80;;;;;;;;;;5039763;28;20503;-82
2024/01/03 07:01:25;;;;;;;19.10;2.63;;;;;;;;;;5039712;28;20329;-81
2024/01/03 07:03:51;;;;;;;18.80;2.75;;;;;;;;;;5039537;28;20449;-82
2024/01/03 07:06:17;;;;;;;21.85;3.28;;;;;;;;;;5051144;28;20041;-81
2024/01/03 07:08:43;;;;;;;20.08;3.10;;;;;;;;;;5059667;28;20068;-82
2024/01/03 07:11:10;;;;;;;19.45;3.03;;;;;;;;;;5041646;28;20136;-82
2024/01/03 07:13:36;;;;;;;21.10;3.30;;;;;;;;;;5043672;28;20060;-82
2024/01/03 07:16:02;;;;;;;20.45;3.88;;;;;;;;;;5053672;28;20510;-81
2024/01/03 07:18:28;;;;;;;27.38;4.15;;;;;;;;;;5059849;28;20157;-82
2024/01/03 07:20:54;;;;;;;25.20;3.60;;;;;;;;;;5059492;28;20486;-81
2024/01/03 07:23:20;;;;;;;21.88;3.33;;;;;;;;;;5058322;28;20045;-82
2024/01/03 07:25:46;;;;;;;23.35;3.35;;;;;;;;;;5053088;28;20038;-82
2024/01/03 07:28:14;;;;;;;25.25;3.45;;;;;;;;;;5038545;28;20049;-82
2024/01/03 07:30:40;;;;;;;22.65;3.65;;;;;;;;;;5021435;28;20517;-82
2024/01/03 07:33:06;;;;;;;24.40;3.40;;;;;;;;;;5038200;28;20072;-81
2024/01/03 07:35:32;;;;;;;24.52;4.72;;;;;;;;;;5039176;28;20088;-80
2024/01/03 07:37:58;;;;;;;24.05;3.58;;;;;;;;;;5036703;28;20056;-80
2024/01/03 07:40:24;;;;;;;21.05;3.20;;;;;;;;;;5037211;28;20121;-81
2024/01/03 07:42:50;;;;;;;24.63;3.78;;;;;;;;;;5037139;28;20050;-81
2024/01/03 07:45:17;;;;;;;22.35;3.22;;;;;;;;;;5041004;28;20046;-81
2024/01/03 07:47:43;;;;;;;26.20;4.60;;;;;;;;;;5045056;28;20041;-81
2024/01/03 07:50:09;;;;;;;20.45;3.60;;;;;;;;;;5041275;28;20041;-81
2024/01/03 07:52:38;;;;;;;21.00;3.65;;;;;;;;;;5036771;28;20158;-81
2024/01/03 07:55:05;;;;;;;18.27;3.08;;;;;;;;;;5047569;28;20394;-81
2024/01/03 07:57:31;;;;;;;20.27;3.42;;;;;;;;;;5053665;28;20046;-81
2024/01/03 07:59:57;;;;;;;24.60;3.55;;;;;;;;;;5022819;28;20075;-81
2024/01/03 08:02:23;;;;;;;20.73;3.35;;;;;;;;;;5036496;28;20045;-81
2024/01/03 08:04:49;;;;;;;23.63;3.60;;;;;;;;;;5037534;28;20049;-81
2024/01/03 08:07:15;;;;;;;19.13;3.38;;;;;;;;;;5037409;28;20128;-81
2024/01/03 08:09:41;;;;;;;22.83;3.60;;;;;;;;;;5035984;28;20406;-81
2024/01/03 08:12:10;;;;;;;21.67;3.53;;;;;;;;;;5036705;28;20053;-82
2024/01/03 08:14:36;;;;;;;23.52;4.00;;;;;;;;;;5036783;28;20037;-81
2024/01/03 08:17:03;;;;;;;27.17;3.97;;;;;;;;;;5036194;28;20045;-81
2024/01/03 08:19:29;;;;;;;18.90;3.63;;;;;;;;;;5036148;28;20091;-81
2024/01/03 08:21:55;;;;;;;21.35;3.50;;;;;;;;;;5036263;28;20144;-80
2024/01/03 08:24:21;;;;;;;21.30;3.55;;;;;;;;;;5035524;28;20050;-81
2024/01/03 08:26:49;;;;;;;19.92;3.25;;;;;;;;;;5035993;28;20491;-81
2024/01/03 08:29:15;;;;;;;16.63;2.97;;;;;;;;;;5035278;28;20049;-81
2024/01/03 08:31:41;;;;;;;12.90;2.70;;;;;;;;;;5036814;28;20085;-82
2024/01/03 08:34:07;;;;;;;16.58;3.30;;;;;;;;;;5038616;28;20060;-81
2024/01/03 08:36:40;;;;;;;14.93;2.53;;;;;;;;;;5037628;28;20053;-81
2024/01/03 08:39:07;;;;;;;16.40;2.90;;;;;;;;;;5038092;28;20085;-81
2024/01/03 08:41:33;;;;;;;16.92;2.80;;;;;;;;;;5040432;28;20099;-82
2024/01/03 08:43:59;;;;;;;15.32;2.83;;;;;;;;;;5042691;28;20064;-82
2024/01/03 08:46:29;;;;;;;19.27;3.03;;;;;;;;;;5046782;28;20055;-82
2024/01/03 08:48:55;;;;;;;21.75;2.53;;;;;;;;;;5048405;28;20049;-81
2024/01/03 08:51:22;;;;;;;16.15;2.75;;;;;;;;;;5053958;28;20049;-81
2024/01/03 08:53:48;;;;;;;19.35;2.47;;;;;;;;;;5009166;28;20055;-82
2024/01/03 08:56:15;;;;;;;11.38;2.22;;;;;;;;;;5043006;28;20041;-82
2024/01/03 08:58:41;;;;;;;13.27;2.13;;;;;;;;;;5040663;28;20046;-81
2024/01/03 09:01:08;;;;;;;13.63;2.38;;;;;;;;;;5041512;28;20053;-81
2024/01/03 09:03:37;;;;;;;10.48;1.77;;;;;;;;;;5038383;28;20057;-81
2024/01/03 09:06:07;;;;;;;11.65;2.40;;;;;;;;;;5041972;28;20057;-81
2024/01/03 09:08:33;;;;;;;12.75;1.90;;;;;;;;;;5042053;28;20080;-80
2024/01/03 09:10:59;;;;;;;10.93;1.75;;;;;;;;;;5041041;28;20061;-81
2024/01/03 09:13:31;;;;;;;12.27;2.03;;;;;;;;;;5023709;28;20100;-81
2024/01/03 09:15:57;;;;;;;11.18;2.00;;;;;;;;;;5041539;28;20046;-81
2024/01/03 09:18:23;;;;;;;13.95;2.30;;;;;;;;;;5043071;28;20129;-81
2024/01/03 09:20:49;;;;;;;12.20;2.00;;;;;;;;;;5041466;28;20095;-82
2024/01/03 09:23:15;;;;;;;16.13;2.25;;;;;;;;;;5041305;28;20049;-82
2024/01/03 09:25:41;;;;;;;13.60;2.40;;;;;;;;;;5040824;28;20053;-81
2024/01/03 09:28:10;;;;;;;13.57;1.90;;;;;;;;;;5041378;28;20060;-82
2024/01/03 09:30:36;;;;;;;16.02;2.67;;;;;;;;;;5041432;28;20081;-81
2024/01/03 09:33:02;;;;;;;15.55;2.30;;;;;;;;;;5059373;28;20049;-80
2024/01/03 09:35:29;;;;;;;18.83;2.83;;;;;;;;;;5053371;28;20401;-80
2024/01/03 09:37:55;;;;;;;19.92;3.53;;;;;;;;;;5040412;28;20041;-82
2024/01/03 09:40:21;;;;;;;15.50;3.13;;;;;;;;;;5040538;28;20059;-80
2024/01/03 09:42:48;;;;;;;16.85;3.13;;;;;;;;;;5040468;28;20049;-81
2024/01/03 09:45:14;;;;;;;18.75;3.00;;;;;;;;;;5040382;28;20053;-80
2024/01/03 09:47:41;;;;;;;16.10;2.95;;;;;;;;;;5040432;28;20042;-80
2024/01/03 09:50:07;;;;;;;22.25;2.90;;;;;;;;;;5039644;28;20038;-80
2024/01/03 09:52:34;;;;;;;18.08;2.95;;;;;;;;;;5038655;28;20101;-81
2024/01/03 09:55:00;;;;;;;17.85;3.70;;;;;;;;;;5039690;28;20045;-80
2024/01/03 09:57:27;;;;;;;20.17;3.47;;;;;;;;;;5021400;28;20064;-82
2024/01/03 09:59:55;;;;;;;20.83;3.72;;;;;;;;;;5040912;28;20049;-81
2024/01/03 10:02:27;;;;;;;19.63;3.75;;;;;;;;;;5040173;28;20053;-81
2024/01/03 10:04:54;;;;;;;18.85;3.00;;;;;;;;;;5055681;28;20049;-81
2024/01/03 10:07:33;;;;;;;24.58;3.80;;;;;;;;;;5020997;28;20149;-81
2024/01/03 10:09:59;;;;;;;17.83;2.78;;;;;;;;;;5023921;28;20068;-81
2024/01/03 10:12:25;;;;;;;14.00;2.60;;;;;;;;;;5021648;28;20387;-80
2024/01/03 10:14:51;;;;;;;13.27;2.22;;;;;;;;;;5020991;28;20131;-81
2024/01/03 10:17:17;;;;;;;17.65;2.63;;;;;;;;;;5020410;28;20046;-80
2024/01/03 10:19:44;;;;;;;15.95;2.65;;;;;;;;;;5033405;28;20060;-81
2024/01/03 10:22:10;;;;;;;18.60;3.08;;;;;;;;;;5054415;28;20053;-80
2024/01/03 10:24:48;;;;;;;16.25;2.38;;;;;;;;;;5041146;28;20073;-81
2024/01/03 10:27:14;;;;;;;16.02;2.35;;;;;;;;;;5040258;28;20494;-80
2024/01/03 10:29:40;;;;;;;15.38;2.55;;;;;;;;;;5040356;28;20053;-81
2024/01/03 10:32:09;;;;;;;15.10;2.65;;;;;;;;;;5040328;28;20054;-80
2024/01/03 10:34:36;;;;;;;15.73;2.35;;;;;;;;;;5040344;28;20053;-80
2024/01/03 10:37:03;;;;;;;10.68;1.67;;;;;;;;;;5022198;28;20048;-81
2024/01/03 10:39:31;;;;;;;15.27;2.15;;;;;;;;;;5023042;28;20045;-80
2024/01/03 10:41:57;;;;;;;15.02;2.47;;;;;;;;;;5020411;28;20042;-80
2024/01/03 10:44:23;;;;;;;17.80;3.13;;;;;;;;;;5019780;28;20050;-81
2024/01/03 10:46:55;;;;;;;20.58;3.00;;;;;;;;;;5020563;28;20064;-80
2024/01/03 10:49:22;;;;;;;15.52;2.65;;;;;;;;;;5042069;28;20048;-81
2024/01/03 10:51:49;;;;;;;16.52;3.67;;;;;;;;;;5040092;28;20085;-81
2024/01/03 10:54:16;;;;;;;13.77;2.75;;;;;;;;;;5043358;28;20096;-80
2024/01/03 10:56:47;;;;;;;17.30;2.88;;;;;;;;;;5043907;28;20056;-80
2024/01/03 10:59:13;;;;;;;22.65;2.78;;;;;;;;;;5041737;28;20079;-80
2024/01/03 11:01:45;;;;;;;18.02;3.22;;;;;;;;;;5039918;28;20042;-80
2024/01/03 11:04:20;;;;;;;20.63;3.30;;;;;;;;;;5040186;28;20049;-80
2024/01/03 11:06:52;;;;;;;19.48;3.28;;;;;;;;;;5040713;28;20053;-82
2024/01/03 11:09:19;;;;;;;26.52;3.30;;;;;;;;;;5054634;28;20067;-81
2024/01/03 11:11:45;;;;;;;15.15;3.55;;;;;;;;;;5040497;28;20099;-81
2024/01/03 11:14:31;;;;;;;18.88;3.30;;;;;;;;;;5019367;28;20066;-81
2024/01/03 11:16:57;;;;;;;20.20;2.90;;;;;;;;;;5020237;28;20049;-82
2024/01/03 11:19:29;;;;;;;17.63;3.17;;;;;;;;;;5040616;28;20033;-81
2024/01/03 11:21:55;;;;;;;21.45;3.20;;;;;;;;;;5022747;28;20129;-81
2024/01/03 11:24:21;;;;;;;14.20;2.63;;;;;;;;;;5039467;28;20053;-81
2024/01/03 11:26:56;;;;;;;16.05;3.10;;;;;;;;;;5039110;28;20045;-82
2024/01/03 11:29:50;;;;;;;18.27;3.33;;;;;;;;;;5020966;28;20053;-81
2024/01/03 11:32:26;;;;;;;22.02;3.33;;;;;;;;;;5039309;28;20045;-82
2024/01/03 11:34:53;;;;;;;20.67;3.03;;;;;;;;;;5038345;28;20052;-82
2024/01/03 11:37:19;;;;;;;18.77;3.22;;;;;;;;;;5039184;28;20447;-81
2024/01/03 11:39:46;;;;;;;20.08;3.38;;;;;;;;;;5035843;28;20125;-80
2024/01/03 11:42:25;;;;;;;24.00;3.58;;;;;;;;;;5038496;28;20435;-81
2024/01/03 11:45:00;;;;;;;20.27;3.60;;;;;;;;;;5040730;28;20059;-81
2024/01/03 11:47:28;;;;;;;24.25;3.28;;;;;;;;;;5021115;28;20049;-82
2024/01/03 11:49:56;;;;;;;23.98;4.22;;;;;;;;;;5029231;28;20054;-81
2024/01/03 11:52:22;;;;;;;18.27;3.17;;;;;;;;;;5039635;28;20503;-81
2024/01/03 11:54:50;;;;;;;21.83;3.90;;;;;;;;;;5053328;28;20504;-81
2024/01/03 11:57:16;;;;;;;23.65;4.43;;;;;;;;;;5059652;28;20041;-81
2024/01/03 11:59:42;;;;;;;26.73;4.15;;;;;;;;;;5058789;28;20045;-82
2024/01/03 12:02:12;;;;;;;27.60;5.00;;;;;;;;;;5039656;28;20046;-82
2024/01/03 12:04:41;;;;;;;29.33;5.43;;;;;;;;;;5023565;28;20045;-81
2024/01/03 12:07:08;;;;;;;22.67;4.13;;;;;;;;;;5039140;28;20116;-82
2024/01/03 12:09:44;;;;;;;;;;;;;;;;;;;;;
2024/01/03 12:12:10;;;;;;;24.45;4.90;;;;;;;;;;5021909;28;20111;-82
2024/01/03 12:14:36;;;;;;;31.38;4.78;;;;;;;;;;5040859;28;20128;-82
2024/01/03 12:17:02;;;;;;;26.42;4.35;;;;;;;;;;5041761;28;20052;-82
2024/01/03 12:19:32;;;;;;;26.35;4.93;;;;;;;;;;5043205;28;20053;-80
2024/01/03 12:21:59;;;;;;;25.13;4.10;;;;;;;;;;5043524;28;20053;-81
2024/01/03 12:24:38;;;;;;;27.40;4.05;;;;;;;;;;5033683;28;20087;-81
2024/01/03 12:27:05;;;;;;;27.35;3.75;;;;;;;;;;5051743;28;20383;-81
2024/01/03 12:29:33;;;;;;;21.05;3.17;;;;;;;;;;5064418;28;20120;-81
2024/01/03 12:32:08;;;;;;;15.05;2.60;;;;;;;;;;5049325;28;20063;-81
2024/01/03 12:34:34;;;;;;;19.67;3.30;;;;;;;;;;5045889;28;20610;-82
2024/01/03 12:37:00;;;;;;;12.77;2.53;;;;;;;;;;5064001;28;20049;-81
2024/01/03 12:39:26;;;;;;;12.75;2.45;;;;;;;;;;5044835;28;20049;-82
2024/01/03 12:41:52;;;;;;;12.52;2.10;;;;;;;;;;5043564;28;20054;-82
2024/01/03 12:44:18;;;;;;;12.60;2.20;;;;;;;;;;5043137;28;20524;-81
2024/01/03 12:46:44;;;;;;;15.38;2.10;;;;;;;;;;5043823;28;20483;-81
2024/01/03 12:49:11;;;;;;;16.35;2.40;;;;;;;;;;5025474;28;20045;-82
2024/01/03 12:51:37;;;;;;;15.13;2.17;;;;;;;;;;5043160;28;20052;-82
2024/01/03 12:54:03;;;;;;;11.60;2.00;;;;;;;;;;5046007;28;20045;-81
2024/01/03 12:56:29;;;;;;;17.50;3.10;;;;;;;;;;5063715;28;20049;-81
2024/01/03 12:58:55;;;;;;;13.00;2.25;;;;;;;;;;5055241;28;20045;-81
2024/01/03 13:01:21;;;;;;;13.93;2.50;;;;;;;;;;5043972;28;20132;-81
2024/01/03 13:03:47;;;;;;;15.52;2.50;;;;;;;;;;5051141;28;20041;-80
2024/01/03 13:06:13;;;;;;;21.90;3.45;;;;;;;;;;5060716;28;20041;-80
2024/01/03 13:08:40;;;;;;;22.00;3.30;;;;;;;;;;5043321;28;20049;-81
2024/01/03 13:11:06;;;;;;;17.05;3.40;;;;;;;;;;5043337;28;20053;-80
2024/01/03 13:13:32;;;;;;;21.00;3.15;;;;;;;;;;5043338;28;20053;-80
2024/01/03 13:15:58;;;;;;;17.90;3.58;;;;;;;;;;5043299;28;20077;-81
2024/01/03 13:18:26;;;;;;;19.30;3.20;;;;;;;;;;5042339;28;20053;-81
2024/01/03 13:20:53;;;;;;;20.73;3.42;;;;;;;;;;5042385;28;20080;-81
2024/01/03 13:23:19;;;;;;;16.55;2.33;;;;;;;;;;5044399;28;20487;-81
2024/01/03 13:25:45;;;;;;;20.77;3.13;;;;;;;;;;5008502;28;20095;-80
2024/01/03 13:28:11;;;;;;;19.48;3.15;;;;;;;;;;5041787;28;20041;-80
2024/01/03 13:30:37;;;;;;;20.77;3.72;;;;;;;;;;5042999;28;20052;-81
2024/01/03 13:33:06;;;;;;;16.63;3.05;;;;;;;;;;5041878;28;20136;-81
2024/01/03 13:35:32;;;;;;;15.30;3.08;;;;;;;;;;5043462;28;20044;-81
2024/01/03 13:37:59;;;;;;;17.77;3.00;;;;;;;;;;5060638;28;20063;-81
2024/01/03 13:40:25;;;;;;;20.00;3.50;;;;;;;;;;5042462;28;20049;-81
2024/01/03 13:42:53;;;;;;;19.52;3.40;;;;;;;;;;5047361;28;20049;-81
2024/01/03 13:45:19;;;;;;;16.65;3.08;;;;;;;;;;5051872;28;20041;-81
2024/01/03 13:47:46;;;;;;;21.85;3.22;;;;;;;;;;5042312;28;20045;-80
2024/01/03 13:50:12;;;;;;;19.15;3.35;;;;;;;;;;5041534;28;20049;-81
2024/01/03 13:52:41;;;;;;;15.13;3.13;;;;;;;;;;5054562;28;20052;-81
2024/01/03 13:55:07;;;;;;;19.02;3.10;;;;;;;;;;5061871;28;20098;-81
2024/01/03 13:57:36;;;;;;;15.32;2.63;;;;;;;;;;5061587;28;20143;-81
2024/01/03 14:00:04;;;;;;;19.48;3.20;;;;;;;;;;5041569;28;20049;-80
2024/01/03 14:02:30;;;;;;;13.70;3.28;;;;;;;;;;5035952;28;20112;-81
2024/01/03 14:04:56;;;;;;;16.40;3.08;;;;;;;;;;5032265;28;20057;-80
2024/01/03 14:07:22;;;;;;;20.05;3.55;;;;;;;;;;5040836;28;20049;-81
2024/01/03 14:09:48;;;;;;;17.67;3.60;;;;;;;;;;5025888;28;20488;-80
2024/01/03 14:12:16;;;;;;;17.55;3.55;;;;;;;;;;5023025;28;20103;-80
2024/01/03 14:14:42;;;;;;;11.73;3.03;;;;;;;;;;5023544;28;20041;-81
2024/01/03 14:17:09;;;;;;;17.17;4.55;;;;;;;;;;5049981;28;20053;-81
2024/01/03 14:19:35;;;;;;;16.08;3.83;;;;;;;;;;5054510;28;20096;-81
2024/01/03 14:22:03;;;;;;;16.08;3.97;;;;;;;;;;5041599;28;20081;-81
2024/01/03 14:24:30;;;;;;;18.75;2.95;;;;;;;;;;5041708;28;20053;-81
2024/01/03 14:26:56;;;;;;;14.52;2.70;;;;;;;;;;5042037;28;20057;-81
2024/01/03 14:29:22;;;;;;;11.77;2.25;;;;;;;;;;5041597;28;20050;-80
2024/01/03 14:31:48;;;;;;;14.60;3.08;;;;;;;;;;5045129;28;20116;-81